sensor_id;sensor_type;location;lat;lon;timestamp;pressure;altitude;pressure_sealevel;temperature;humidity
37856;BME280;23694;43.274;26.924;2022-12-18T00:01:04;99522.56;;;9.18;82.18
37856;BME280;23694;43.274;26.924;2022-12-18T00:03:33;99531.84;;;9.24;82.03
37856;BME280;23694;43.274;26.924;2022-12-18T00:05:59;99537.16;;;9.23;81.94
37856;BME280;23694;43.274;26.924;2022-12-18T00:08:26;99541.53;;;9.22;81.71
37856;BME280;23694;43.274;26.924;2022-12-18T00:10:52;99552.84;;;9.23;81.80
37856;BME280;23694;43.274;26.924;2022-12-18T00:13:18;99554.34;;;9.27;80.95
37856;BME280;23694;43.274;26.924;2022-12-18T00:15:44;99551.41;;;9.33;81.17
37856;BME280;23694;43.274;26.924;2022-12-18T00:18:10;99556.56;;;9.34;81.21
37856;BME280;23694;43.274;26.924;2022-12-18T00:20:37;99560.88;;;9.35;81.28
37856;BME280;23694;43.274;26.924;2022-12-18T00:23:04;99563.81;;;9.29;81.12
37856;BME280;23694;43.274;26.924;2022-12-18T00:25:33;99560.50;;;9.26;81.46
37856;BME280;23694;43.274;26.924;2022-12-18T00:27:59;99564.13;;;9.23;81.64
37856;BME280;23694;43.274;26.924;2022-12-18T00:30:25;99561.28;;;9.28;81.86
37856;BME280;23694;43.274;26.924;2022-12-18T00:32:51;99561.94;;;9.31;81.04
37856;BME280;23694;43.274;26.924;2022-12-18T00:35:17;99563.03;;;9.27;80.13
37856;BME280;23694;43.274;26.924;2022-12-18T00:37:43;99559.31;;;9.15;80.57
37856;BME280;23694;43.274;26.924;2022-12-18T00:40:10;99566.97;;;9.18;80.41
37856;BME280;23694;43.274;26.924;2022-12-18T00:42:36;99568.50;;;9.23;79.19
37856;BME280;23694;43.274;26.924;2022-12-18T00:45:22;99574.66;;;9.21;78.82
37856;BME280;23694;43.274;26.924;2022-12-18T00:47:48;99570.38;;;9.20;79.09
37856;BME280;23694;43.274;26.924;2022-12-18T00:50:14;99573.06;;;9.19;79.57
37856;BME280;23694;43.274;26.924;2022-12-18T00:52:40;99564.53;;;9.15;79.04
37856;BME280;23694;43.274;26.924;2022-12-18T00:55:06;99549.94;;;9.11;79.51
37856;BME280;23694;43.274;26.924;2022-12-18T00:57:33;99549.78;;;9.14;79.47
37856;BME280;23694;43.274;26.924;2022-12-18T00:59:59;99543.88;;;9.11;80.07
37856;BME280;23694;43.274;26.924;2022-12-18T01:02:25;99557.63;;;9.14;80.85
37856;BME280;23694;43.274;26.924;2022-12-18T01:04:51;99557.78;;;9.11;80.82
37856;BME280;23694;43.274;26.924;2022-12-18T01:07:17;99558.91;;;9.06;80.84
37856;BME280;23694;43.274;26.924;2022-12-18T01:09:43;99549.22;;;9.08;80.53
37856;BME280;23694;43.274;26.924;2022-12-18T01:12:09;99546.19;;;9.00;81.15
37856;BME280;23694;43.274;26.924;2022-12-18T01:14:36;99554.69;;;9.03;80.55
37856;BME280;23694;43.274;26.924;2022-12-18T01:17:03;99550.41;;;9.02;80.80
37856;BME280;23694;43.274;26.924;2022-12-18T01:19:30;99534.34;;;8.93;80.70
37856;BME280;23694;43.274;26.924;2022-12-18T01:21:56;99545.31;;;8.99;80.06
37856;BME280;23694;43.274;26.924;2022-12-18T01:24:22;99536.88;;;8.94;80.42
37856;BME280;23694;43.274;26.924;2022-12-18T01:26:48;99543.88;;;8.94;80.12
37856;BME280;23694;43.274;26.924;2022-12-18T01:29:14;99547.50;;;8.91;79.36
37856;BME280;23694;43.274;26.924;2022-12-18T01:31:40;99555.41;;;8.89;79.97
37856;BME280;23694;43.274;26.924;2022-12-18T01:34:06;99560.34;;;8.78;80.61
37856;BME280;23694;43.274;26.924;2022-12-18T01:36:35;99577.09;;;8.74;80.60
37856;BME280;23694;43.274;26.924;2022-12-18T01:39:04;99581.63;;;8.71;81.39
37856;BME280;23694;43.274;26.924;2022-12-18T01:41:32;99581.34;;;8.60;81.09
37856;BME280;23694;43.274;26.924;2022-12-18T01:47:44;99595.75;;;8.49;81.28
37856;BME280;23694;43.274;26.924;2022-12-18T01:52:56;99593.34;;;8.45;81.56
37856;BME280;23694;43.274;26.924;2022-12-18T01:55:26;99586.59;;;8.41;81.38
37856;BME280;23694;43.274;26.924;2022-12-18T01:57:55;99585.41;;;8.29;81.79
37856;BME280;23694;43.274;26.924;2022-12-18T02:00:23;99590.63;;;8.29;81.36
37856;BME280;23694;43.274;26.924;2022-12-18T02:02:50;99580.88;;;8.33;81.36
37856;BME280;23694;43.274;26.924;2022-12-18T02:05:19;99588.47;;;8.20;80.32
37856;BME280;23694;43.274;26.924;2022-12-18T02:08:10;99586.69;;;8.20;80.84
37856;BME280;23694;43.274;26.924;2022-12-18T02:10:51;99594.59;;;8.19;80.82
37856;BME280;23694;43.274;26.924;2022-12-18T02:13:32;99603.50;;;8.15;80.79
37856;BME280;23694;43.274;26.924;2022-12-18T02:18:38;99609.91;;;8.08;80.85
37856;BME280;23694;43.274;26.924;2022-12-18T02:21:28;99613.66;;;8.02;80.65
37856;BME280;23694;43.274;26.924;2022-12-18T02:24:21;99612.28;;;7.95;80.88
37856;BME280;23694;43.274;26.924;2022-12-18T02:26:56;99616.63;;;7.94;81.55
37856;BME280;23694;43.274;26.924;2022-12-18T02:29:26;99622.84;;;7.92;81.36
37856;BME280;23694;43.274;26.924;2022-12-18T02:31:59;99635.31;;;7.85;81.30
37856;BME280;23694;43.274;26.924;2022-12-18T02:34:31;99626.88;;;7.80;81.22
37856;BME280;23694;43.274;26.924;2022-12-18T02:37:01;99621.06;;;7.74;80.64
37856;BME280;23694;43.274;26.924;2022-12-18T02:39:30;99623.53;;;7.77;80.08
37856;BME280;23694;43.274;26.924;2022-12-18T02:41:59;99623.88;;;7.69;80.45
37856;BME280;23694;43.274;26.924;2022-12-18T02:44:28;99634.94;;;7.74;79.58
37856;BME280;23694;43.274;26.924;2022-12-18T02:46:54;99619.50;;;7.70;79.28
37856;BME280;23694;43.274;26.924;2022-12-18T02:57:34;99633.31;;;7.72;80.07
37856;BME280;23694;43.274;26.924;2022-12-18T03:05:35;99655.50;;;7.82;79.04
37856;BME280;23694;43.274;26.924;2022-12-18T03:08:06;99665.06;;;7.81;79.45
37856;BME280;23694;43.274;26.924;2022-12-18T03:10:38;99644.66;;;7.71;79.21
37856;BME280;23694;43.274;26.924;2022-12-18T03:13:14;99664.13;;;7.63;79.08
37856;BME280;23694;43.274;26.924;2022-12-18T03:15:46;99667.28;;;7.70;79.07
37856;BME280;23694;43.274;26.924;2022-12-18T03:21:24;99668.47;;;7.63;78.56
37856;BME280;23694;43.274;26.924;2022-12-18T03:23:52;99684.41;;;7.57;78.17
37856;BME280;23694;43.274;26.924;2022-12-18T03:26:23;99688.97;;;7.52;78.03
37856;BME280;23694;43.274;26.924;2022-12-18T03:28:53;99705.38;;;7.54;77.76
37856;BME280;23694;43.274;26.924;2022-12-18T03:31:23;99703.31;;;7.42;77.52
37856;BME280;23694;43.274;26.924;2022-12-18T03:33:58;99708.13;;;7.51;77.18
37856;BME280;23694;43.274;26.924;2022-12-18T03:36:30;99722.69;;;7.36;76.88
37856;BME280;23694;43.274;26.924;2022-12-18T03:38:57;99728.28;;;7.27;77.18
37856;BME280;23694;43.274;26.924;2022-12-18T03:44:41;99734.94;;;6.92;79.20
37856;BME280;23694;43.274;26.924;2022-12-18T03:47:40;99731.41;;;6.93;78.66
37856;BME280;23694;43.274;26.924;2022-12-18T03:55:44;99738.78;;;7.04;76.79
37856;BME280;23694;43.274;26.924;2022-12-18T03:58:13;99737.09;;;7.03;76.93
37856;BME280;23694;43.274;26.924;2022-12-18T04:00:42;99741.97;;;7.10;76.78
37856;BME280;23694;43.274;26.924;2022-12-18T04:03:10;99727.53;;;7.03;76.23
37856;BME280;23694;43.274;26.924;2022-12-18T04:05:38;99733.31;;;6.89;77.13
37856;BME280;23694;43.274;26.924;2022-12-18T04:08:05;99744.88;;;6.82;77.48
37856;BME280;23694;43.274;26.924;2022-12-18T04:10:31;99747.66;;;6.78;77.35
37856;BME280;23694;43.274;26.924;2022-12-18T04:12:57;99773.09;;;6.71;77.68
37856;BME280;23694;43.274;26.924;2022-12-18T04:15:23;99778.38;;;6.70;77.63
37856;BME280;23694;43.274;26.924;2022-12-18T04:17:50;99786.22;;;6.68;77.99
37856;BME280;23694;43.274;26.924;2022-12-18T04:20:16;99800.75;;;6.52;78.65
37856;BME280;23694;43.274;26.924;2022-12-18T04:22:43;99808.31;;;6.58;78.30
37856;BME280;23694;43.274;26.924;2022-12-18T04:25:09;99803.34;;;6.52;78.32
37856;BME280;23694;43.274;26.924;2022-12-18T04:27:35;99809.00;;;6.63;78.45
37856;BME280;23694;43.274;26.924;2022-12-18T04:30:01;99819.75;;;6.54;78.59
37856;BME280;23694;43.274;26.924;2022-12-18T04:32:27;99818.19;;;6.72;78.69
37856;BME280;23694;43.274;26.924;2022-12-18T04:34:53;99821.03;;;6.65;77.79
37856;BME280;23694;43.274;26.924;2022-12-18T04:37:19;99834.84;;;6.44;78.57
37856;BME280;23694;43.274;26.924;2022-12-18T04:39:45;99838.88;;;6.29;79.82
37856;BME280;23694;43.274;26.924;2022-12-18T04:42:11;99843.56;;;6.20;79.77
37856;BME280;23694;43.274;26.924;2022-12-18T04:44:37;99854.06;;;6.17;80.45
37856;BME280;23694;43.274;26.924;2022-12-18T04:47:03;99846.81;;;5.75;80.93
37856;BME280;23694;43.274;26.924;2022-12-18T04:49:30;99849.31;;;5.78;81.52
37856;BME280;23694;43.274;26.924;2022-12-18T04:51:56;99864.69;;;5.84;80.81
37856;BME280;23694;43.274;26.924;2022-12-18T04:54:22;99865.44;;;5.89;80.26
37856;BME280;23694;43.274;26.924;2022-12-18T04:56:48;99860.94;;;5.94;79.45
37856;BME280;23694;43.274;26.924;2022-12-18T04:59:14;99869.22;;;6.06;78.84
37856;BME280;23694;43.274;26.924;2022-12-18T05:01:40;99876.72;;;5.88;79.14
37856;BME280;23694;43.274;26.924;2022-12-18T05:04:06;99870.66;;;5.89;79.32
37856;BME280;23694;43.274;26.924;2022-12-18T05:06:32;99883.50;;;5.94;78.37
37856;BME280;23694;43.274;26.924;2022-12-18T05:08:58;99889.66;;;5.91;78.76
37856;BME280;23694;43.274;26.924;2022-12-18T05:11:24;99885.84;;;5.73;79.23
37856;BME280;23694;43.274;26.924;2022-12-18T05:13:50;99885.25;;;5.93;78.24
37856;BME280;23694;43.274;26.924;2022-12-18T05:16:16;99884.97;;;6.01;77.52
37856;BME280;23694;43.274;26.924;2022-12-18T05:18:42;99906.91;;;5.94;77.66
37856;BME280;23694;43.274;26.924;2022-12-18T05:21:09;99918.53;;;5.81;78.26
37856;BME280;23694;43.274;26.924;2022-12-18T05:23:35;99918.59;;;5.79;77.49
37856;BME280;23694;43.274;26.924;2022-12-18T05:26:04;99928.09;;;5.54;77.29
37856;BME280;23694;43.274;26.924;2022-12-18T05:28:32;99931.50;;;5.56;78.66
37856;BME280;23694;43.274;26.924;2022-12-18T05:31:00;99947.53;;;5.42;78.78
37856;BME280;23694;43.274;26.924;2022-12-18T05:33:30;99950.44;;;5.59;78.14
37856;BME280;23694;43.274;26.924;2022-12-18T05:35:59;99961.84;;;5.55;78.34
37856;BME280;23694;43.274;26.924;2022-12-18T05:38:26;99963.91;;;5.72;77.48
37856;BME280;23694;43.274;26.924;2022-12-18T05:40:53;99959.78;;;5.65;77.37
37856;BME280;23694;43.274;26.924;2022-12-18T05:43:20;99962.28;;;5.68;77.26
37856;BME280;23694;43.274;26.924;2022-12-18T05:45:50;99962.50;;;5.62;77.85
37856;BME280;23694;43.274;26.924;2022-12-18T05:48:17;99967.38;;;5.45;78.56
37856;BME280;23694;43.274;26.924;2022-12-18T05:50:45;99976.63;;;5.53;78.76
37856;BME280;23694;43.274;26.924;2022-12-18T05:53:13;99983.09;;;5.68;77.94
37856;BME280;23694;43.274;26.924;2022-12-18T05:55:41;99988.03;;;5.49;78.22
37856;BME280;23694;43.274;26.924;2022-12-18T05:58:08;99991.31;;;5.54;78.16
37856;BME280;23694;43.274;26.924;2022-12-18T06:00:38;99996.75;;;5.74;78.38
37856;BME280;23694;43.274;26.924;2022-12-18T06:03:08;100002.59;;;5.81;79.34
37856;BME280;23694;43.274;26.924;2022-12-18T06:05:40;100013.81;;;6.11;80.78
37856;BME280;23694;43.274;26.924;2022-12-18T06:08:06;100026.59;;;6.17;75.51
37856;BME280;23694;43.274;26.924;2022-12-18T06:10:33;100026.56;;;6.19;75.10
37856;BME280;23694;43.274;26.924;2022-12-18T06:12:59;100038.66;;;6.20;74.46
37856;BME280;23694;43.274;26.924;2022-12-18T06:15:25;100045.97;;;6.09;74.25
37856;BME280;23694;43.274;26.924;2022-12-18T06:17:51;100046.00;;;6.07;74.33
37856;BME280;23694;43.274;26.924;2022-12-18T06:20:18;100050.38;;;6.07;74.10
37856;BME280;23694;43.274;26.924;2022-12-18T06:22:44;100051.63;;;6.21;74.37
37856;BME280;23694;43.274;26.924;2022-12-18T06:25:10;100062.03;;;6.21;73.08
37856;BME280;23694;43.274;26.924;2022-12-18T06:27:37;100059.16;;;6.02;73.58
37856;BME280;23694;43.274;26.924;2022-12-18T06:30:04;100074.81;;;6.01;73.62
37856;BME280;23694;43.274;26.924;2022-12-18T06:32:30;100069.78;;;5.96;73.18
37856;BME280;23694;43.274;26.924;2022-12-18T06:34:56;100084.28;;;6.03;73.39
37856;BME280;23694;43.274;26.924;2022-12-18T06:37:22;100063.06;;;5.88;73.97
37856;BME280;23694;43.274;26.924;2022-12-18T06:39:54;100086.94;;;6.02;75.00
37856;BME280;23694;43.274;26.924;2022-12-18T06:42:22;100080.31;;;5.92;74.44
37856;BME280;23694;43.274;26.924;2022-12-18T06:44:49;100081.22;;;5.91;74.44
37856;BME280;23694;43.274;26.924;2022-12-18T06:47:15;100088.44;;;5.80;74.66
37856;BME280;23694;43.274;26.924;2022-12-18T06:49:41;100097.81;;;5.85;74.84
37856;BME280;23694;43.274;26.924;2022-12-18T06:52:07;100102.78;;;5.94;74.04
37856;BME280;23694;43.274;26.924;2022-12-18T06:54:33;100109.63;;;5.97;73.94
37856;BME280;23694;43.274;26.924;2022-12-18T06:56:59;100117.53;;;5.94;73.81
37856;BME280;23694;43.274;26.924;2022-12-18T06:59:25;100115.72;;;5.96;73.96
37856;BME280;23694;43.274;26.924;2022-12-18T07:01:51;100129.44;;;6.01;74.28
37856;BME280;23694;43.274;26.924;2022-12-18T07:04:17;100132.03;;;6.01;72.86
37856;BME280;23694;43.274;26.924;2022-12-18T07:06:43;100135.53;;;6.00;72.65
37856;BME280;23694;43.274;26.924;2022-12-18T07:09:10;100136.44;;;5.99;72.93
37856;BME280;23694;43.274;26.924;2022-12-18T07:11:36;100142.00;;;6.15;73.40
37856;BME280;23694;43.274;26.924;2022-12-18T07:14:02;100144.22;;;6.27;72.54
37856;BME280;23694;43.274;26.924;2022-12-18T07:16:28;100145.22;;;6.23;72.49
37856;BME280;23694;43.274;26.924;2022-12-18T07:18:55;100144.28;;;6.25;71.95
37856;BME280;23694;43.274;26.924;2022-12-18T07:21:22;100151.13;;;6.28;72.62
37856;BME280;23694;43.274;26.924;2022-12-18T07:23:48;100153.63;;;6.31;72.69
37856;BME280;23694;43.274;26.924;2022-12-18T07:26:16;100158.00;;;6.30;70.87
37856;BME280;23694;43.274;26.924;2022-12-18T07:28:43;100172.75;;;6.30;71.89
37856;BME280;23694;43.274;26.924;2022-12-18T07:31:15;100178.28;;;6.47;71.97
37856;BME280;23694;43.274;26.924;2022-12-18T07:33:42;100172.22;;;6.47;71.89
37856;BME280;23694;43.274;26.924;2022-12-18T07:36:09;100180.47;;;6.61;70.71
37856;BME280;23694;43.274;26.924;2022-12-18T07:38:36;100170.25;;;6.55;70.42
37856;BME280;23694;43.274;26.924;2022-12-18T07:41:11;100179.59;;;6.60;70.57
37856;BME280;23694;43.274;26.924;2022-12-18T07:43:38;100180.81;;;6.50;71.11
37856;BME280;23694;43.274;26.924;2022-12-18T07:46:05;100187.81;;;6.75;70.63
37856;BME280;23694;43.274;26.924;2022-12-18T07:48:31;100189.78;;;6.68;73.21
37856;BME280;23694;43.274;26.924;2022-12-18T07:51:02;100187.38;;;6.34;71.60
37856;BME280;23694;43.274;26.924;2022-12-18T07:53:30;100211.94;;;6.53;72.24
37856;BME280;23694;43.274;26.924;2022-12-18T07:56:05;100212.09;;;6.47;71.97
37856;BME280;23694;43.274;26.924;2022-12-18T07:58:32;100214.59;;;6.52;72.98
37856;BME280;23694;43.274;26.924;2022-12-18T08:01:10;100217.19;;;6.52;72.22
37856;BME280;23694;43.274;26.924;2022-12-18T08:03:37;100219.59;;;6.58;72.12
37856;BME280;23694;43.274;26.924;2022-12-18T08:06:05;100223.72;;;6.65;71.57
37856;BME280;23694;43.274;26.924;2022-12-18T08:08:33;100213.25;;;6.66;72.20
37856;BME280;23694;43.274;26.924;2022-12-18T08:10:59;100221.06;;;6.66;71.31
37856;BME280;23694;43.274;26.924;2022-12-18T08:13:26;100221.56;;;6.51;72.10
37856;BME280;23694;43.274;26.924;2022-12-18T08:16:06;100238.22;;;6.44;72.68
37856;BME280;23694;43.274;26.924;2022-12-18T08:18:33;100228.25;;;6.30;72.91
37856;BME280;23694;43.274;26.924;2022-12-18T08:21:13;100251.66;;;6.30;72.30
37856;BME280;23694;43.274;26.924;2022-12-18T08:23:41;100250.75;;;6.31;72.63
37856;BME280;23694;43.274;26.924;2022-12-18T08:26:07;100253.47;;;6.28;73.15
37856;BME280;23694;43.274;26.924;2022-12-18T08:28:33;100254.31;;;6.29;72.86
37856;BME280;23694;43.274;26.924;2022-12-18T08:31:00;100253.22;;;6.36;71.98
37856;BME280;23694;43.274;26.924;2022-12-18T08:33:26;100255.75;;;6.39;71.55
37856;BME280;23694;43.274;26.924;2022-12-18T08:35:52;100253.09;;;6.41;70.54
37856;BME280;23694;43.274;26.924;2022-12-18T08:38:19;100261.56;;;6.47;70.38
37856;BME280;23694;43.274;26.924;2022-12-18T08:40:45;100255.94;;;6.61;69.27
37856;BME280;23694;43.274;26.924;2022-12-18T08:43:11;100253.53;;;6.55;68.30
37856;BME280;23694;43.274;26.924;2022-12-18T08:45:57;100251.56;;;6.63;67.60
37856;BME280;23694;43.274;26.924;2022-12-18T08:48:23;100252.75;;;6.79;67.17
37856;BME280;23694;43.274;26.924;2022-12-18T08:50:59;100253.50;;;6.56;67.69
37856;BME280;23694;43.274;26.924;2022-12-18T08:53:26;100256.63;;;6.67;66.84
37856;BME280;23694;43.274;26.924;2022-12-18T08:55:52;100253.91;;;6.71;66.76
37856;BME280;23694;43.274;26.924;2022-12-18T08:58:19;100251.56;;;6.63;67.26
37856;BME280;23694;43.274;26.924;2022-12-18T09:00:45;100258.38;;;6.67;67.18
37856;BME280;23694;43.274;26.924;2022-12-18T09:03:13;100260.72;;;6.47;66.50
37856;BME280;23694;43.274;26.924;2022-12-18T09:05:39;100248.03;;;6.36;67.38
37856;BME280;23694;43.274;26.924;2022-12-18T09:08:05;100261.41;;;6.24;65.97
37856;BME280;23694;43.274;26.924;2022-12-18T09:10:32;100269.88;;;6.30;66.18
37856;BME280;23694;43.274;26.924;2022-12-18T09:12:58;100268.50;;;6.47;66.84
37856;BME280;23694;43.274;26.924;2022-12-18T09:15:25;100266.00;;;6.44;66.69
37856;BME280;23694;43.274;26.924;2022-12-18T09:17:51;100269.88;;;6.60;66.35
37856;BME280;23694;43.274;26.924;2022-12-18T09:20:19;100268.81;;;6.08;67.63
37856;BME280;23694;43.274;26.924;2022-12-18T09:22:45;100274.94;;;6.35;67.13
37856;BME280;23694;43.274;26.924;2022-12-18T09:25:11;100281.53;;;6.47;67.14
37856;BME280;23694;43.274;26.924;2022-12-18T09:27:37;100271.22;;;6.44;67.95
37856;BME280;23694;43.274;26.924;2022-12-18T09:30:03;100269.31;;;6.50;67.74
37856;BME280;23694;43.274;26.924;2022-12-18T09:32:29;100264.09;;;6.50;67.31
37856;BME280;23694;43.274;26.924;2022-12-18T09:34:55;100275.03;;;6.61;67.46
37856;BME280;23694;43.274;26.924;2022-12-18T09:37:22;100272.47;;;6.30;68.13
37856;BME280;23694;43.274;26.924;2022-12-18T09:39:48;100275.66;;;6.40;68.37
37856;BME280;23694;43.274;26.924;2022-12-18T09:42:21;100276.88;;;6.58;67.39
37856;BME280;23694;43.274;26.924;2022-12-18T09:44:53;100269.13;;;6.56;68.99
37856;BME280;23694;43.274;26.924;2022-12-18T09:47:27;100263.75;;;6.61;68.49
37856;BME280;23694;43.274;26.924;2022-12-18T09:50:01;100265.63;;;6.57;68.16
37856;BME280;23694;43.274;26.924;2022-12-18T09:52:56;100267.97;;;6.65;67.86
37856;BME280;23694;43.274;26.924;2022-12-18T09:55:37;100257.81;;;6.84;71.14
37856;BME280;23694;43.274;26.924;2022-12-18T10:00:52;100272.31;;;7.19;66.69
37856;BME280;23694;43.274;26.924;2022-12-18T10:03:18;100274.09;;;7.18;63.89
37856;BME280;23694;43.274;26.924;2022-12-18T10:08:46;100281.41;;;7.06;63.88
37856;BME280;23694;43.274;26.924;2022-12-18T10:14:14;100269.50;;;7.25;63.31
37856;BME280;23694;43.274;26.924;2022-12-18T10:17:30;100275.53;;;7.27;64.31
37856;BME280;23694;43.274;26.924;2022-12-18T10:19:56;100276.28;;;7.30;63.36
37856;BME280;23694;43.274;26.924;2022-12-18T10:27:46;100274.34;;;7.09;64.29
37856;BME280;23694;43.274;26.924;2022-12-18T10:30:20;100282.84;;;7.16;64.06
37856;BME280;23694;43.274;26.924;2022-12-18T10:32:47;100275.47;;;7.28;64.40
37856;BME280;23694;43.274;26.924;2022-12-18T10:35:24;100280.25;;;7.16;65.51
37856;BME280;23694;43.274;26.924;2022-12-18T10:41:00;100280.31;;;7.39;65.00
37856;BME280;23694;43.274;26.924;2022-12-18T10:48:59;100281.50;;;7.55;67.72
37856;BME280;23694;43.274;26.924;2022-12-18T10:51:31;100293.63;;;7.56;64.78
37856;BME280;23694;43.274;26.924;2022-12-18T10:54:21;100286.66;;;7.57;64.65
37856;BME280;23694;43.274;26.924;2022-12-18T10:56:48;100282.56;;;7.50;65.09
37856;BME280;23694;43.274;26.924;2022-12-18T10:59:16;100285.31;;;7.45;65.90
37856;BME280;23694;43.274;26.924;2022-12-18T11:09:28;100295.91;;;7.41;64.46
37856;BME280;23694;43.274;26.924;2022-12-18T11:11:57;100293.25;;;7.42;65.12
37856;BME280;23694;43.274;26.924;2022-12-18T11:16:55;100296.47;;;7.24;63.66
37856;BME280;23694;43.274;26.924;2022-12-18T11:19:37;100304.78;;;7.35;62.68
37856;BME280;23694;43.274;26.924;2022-12-18T11:22:21;100302.03;;;7.40;62.55
37856;BME280;23694;43.274;26.924;2022-12-18T11:24:59;100302.13;;;7.61;63.56
37856;BME280;23694;43.274;26.924;2022-12-18T11:27:28;100303.09;;;7.59;64.55
37856;BME280;23694;43.274;26.924;2022-12-18T11:30:21;100301.88;;;7.44;65.17
37856;BME280;23694;43.274;26.924;2022-12-18T11:37:58;100315.00;;;7.15;67.39
37856;BME280;23694;43.274;26.924;2022-12-18T11:40:35;100310.63;;;6.89;67.07
37856;BME280;23694;43.274;26.924;2022-12-18T11:43:16;100309.13;;;7.08;68.19
37856;BME280;23694;43.274;26.924;2022-12-18T11:45:51;100310.13;;;7.04;67.15
37856;BME280;23694;43.274;26.924;2022-12-18T11:50:53;100315.63;;;6.95;67.69
37856;BME280;23694;43.274;26.924;2022-12-18T11:53:20;100316.13;;;7.06;67.16
37856;BME280;23694;43.274;26.924;2022-12-18T11:56:11;100314.50;;;7.30;68.58
37856;BME280;23694;43.274;26.924;2022-12-18T12:15:06;100327.41;;;7.07;67.87
37856;BME280;23694;43.274;26.924;2022-12-18T12:17:48;100317.16;;;6.74;67.80
37856;BME280;23694;43.274;26.924;2022-12-18T12:20:50;100328.69;;;6.93;67.32
37856;BME280;23694;43.274;26.924;2022-12-18T12:23:41;100328.34;;;6.48;68.30
37856;BME280;23694;43.274;26.924;2022-12-18T12:26:21;100334.00;;;6.62;68.49
37856;BME280;23694;43.274;26.924;2022-12-18T12:29:00;100341.44;;;6.75;67.92
37856;BME280;23694;43.274;26.924;2022-12-18T12:39:38;100338.19;;;6.96;68.64
37856;BME280;23694;43.274;26.924;2022-12-18T12:42:13;100346.56;;;7.06;66.95
37856;BME280;23694;43.274;26.924;2022-12-18T12:45:01;100349.09;;;7.07;66.72
37856;BME280;23694;43.274;26.924;2022-12-18T12:47:33;100341.06;;;6.87;67.21
37856;BME280;23694;43.274;26.924;2022-12-18T12:50:03;100335.38;;;6.74;67.63
37856;BME280;23694;43.274;26.924;2022-12-18T12:52:46;100350.53;;;6.61;67.97
37856;BME280;23694;43.274;26.924;2022-12-18T12:55:32;100352.03;;;6.08;69.54
37856;BME280;23694;43.274;26.924;2022-12-18T12:58:20;100353.78;;;6.08;69.69
37856;BME280;23694;43.274;26.924;2022-12-18T13:09:10;100366.25;;;5.96;72.12
37856;BME280;23694;43.274;26.924;2022-12-18T13:11:44;100356.22;;;6.14;71.71
37856;BME280;23694;43.274;26.924;2022-12-18T13:19:52;100396.47;;;6.31;71.60
37856;BME280;23694;43.274;26.924;2022-12-18T13:22:51;100396.22;;;6.41;71.36
37856;BME280;23694;43.274;26.924;2022-12-18T13:38:36;100418.63;;;6.77;69.37
37856;BME280;23694;43.274;26.924;2022-12-18T13:41:22;100412.03;;;6.65;69.09
37856;BME280;23694;43.274;26.924;2022-12-18T13:43:53;100410.44;;;6.60;69.95
37856;BME280;23694;43.274;26.924;2022-12-18T13:48:52;100423.19;;;6.69;69.02
37856;BME280;23694;43.274;26.924;2022-12-18T13:51:20;100433.13;;;6.24;69.92
37856;BME280;23694;43.274;26.924;2022-12-18T13:53:51;100437.22;;;6.00;71.66
37856;BME280;23694;43.274;26.924;2022-12-18T13:56:22;100433.66;;;6.04;72.42
37856;BME280;23694;43.274;26.924;2022-12-18T14:01:35;100437.47;;;6.23;71.59
37856;BME280;23694;43.274;26.924;2022-12-18T14:04:30;100447.50;;;6.04;72.16
37856;BME280;23694;43.274;26.924;2022-12-18T14:07:04;100456.13;;;6.07;72.17
37856;BME280;23694;43.274;26.924;2022-12-18T14:09:36;100439.56;;;6.11;71.12
37856;BME280;23694;43.274;26.924;2022-12-18T14:12:03;100450.59;;;6.19;71.65
37856;BME280;23694;43.274;26.924;2022-12-18T14:14:49;100450.84;;;6.10;71.47
37856;BME280;23694;43.274;26.924;2022-12-18T14:17:17;100458.53;;;6.14;72.05
37856;BME280;23694;43.274;26.924;2022-12-18T14:19:45;100453.91;;;6.25;71.74
37856;BME280;23694;43.274;26.924;2022-12-18T14:22:18;100461.50;;;6.33;71.19
37856;BME280;23694;43.274;26.924;2022-12-18T14:24:46;100452.00;;;6.32;70.69
37856;BME280;23694;43.274;26.924;2022-12-18T14:27:21;100461.59;;;6.30;70.19
37856;BME280;23694;43.274;26.924;2022-12-18T14:29:47;100463.94;;;6.39;70.02
37856;BME280;23694;43.274;26.924;2022-12-18T14:32:16;100472.00;;;6.30;69.70
37856;BME280;23694;43.274;26.924;2022-12-18T14:34:48;100487.13;;;6.16;70.30
37856;BME280;23694;43.274;26.924;2022-12-18T14:37:18;100487.81;;;6.22;70.49
37856;BME280;23694;43.274;26.924;2022-12-18T14:40:12;100485.13;;;6.25;70.38
37856;BME280;23694;43.274;26.924;2022-12-18T14:42:38;100483.75;;;6.12;71.35
37856;BME280;23694;43.274;26.924;2022-12-18T14:48:15;100494.16;;;6.45;70.94
37856;BME280;23694;43.274;26.924;2022-12-18T14:50:43;100499.19;;;6.18;71.54
37856;BME280;23694;43.274;26.924;2022-12-18T14:55:58;100495.66;;;5.85;72.22
37856;BME280;23694;43.274;26.924;2022-12-18T14:58:24;100496.44;;;5.89;72.94
37856;BME280;23694;43.274;26.924;2022-12-18T15:00:50;100499.03;;;5.90;72.40
37856;BME280;23694;43.274;26.924;2022-12-18T15:03:20;100500.94;;;5.81;72.15
37856;BME280;23694;43.274;26.924;2022-12-18T15:05:47;100494.69;;;5.91;71.80
37856;BME280;23694;43.274;26.924;2022-12-18T15:08:34;100510.44;;;5.82;72.75
37856;BME280;23694;43.274;26.924;2022-12-18T15:11:02;100510.25;;;5.92;72.33
37856;BME280;23694;43.274;26.924;2022-12-18T15:13:28;100509.16;;;6.01;72.60
37856;BME280;23694;43.274;26.924;2022-12-18T15:15:57;100519.41;;;5.70;73.63
37856;BME280;23694;43.274;26.924;2022-12-18T15:18:41;100510.63;;;5.74;74.30
37856;BME280;23694;43.274;26.924;2022-12-18T15:21:10;100512.41;;;5.72;75.03
37856;BME280;23694;43.274;26.924;2022-12-18T15:23:48;100525.56;;;5.66;74.77
37856;BME280;23694;43.274;26.924;2022-12-18T15:26:16;100517.69;;;5.69;75.25
37856;BME280;23694;43.274;26.924;2022-12-18T15:28:51;100529.88;;;5.67;75.88